createdAt,value
2019-03-06T00:05:48.049Z,98.20
2019-03-06T00:10:52.975Z,98.30
2019-03-06T00:15:58.251Z,97.90
2019-03-06T00:21:03.656Z,98.40
2019-03-06T00:26:08.863Z,97.90
2019-03-06T00:31:14.183Z,98.10
2019-03-06T00:36:20.474Z,98.00
2019-03-06T00:41:28.210Z,97.90
2019-03-06T00:46:33.328Z,97.90
2019-03-06T00:51:57.455Z,97.80
2019-03-06T00:57:02.747Z,97.30
2019-03-06T01:02:08.071Z,96.80
2019-03-06T01:07:13.186Z,96.70
2019-03-06T01:12:18.343Z,96.20
2019-03-06T01:17:23.641Z,95.90
2019-03-06T01:22:29.022Z,95.90
2019-03-06T01:27:34.394Z,95.50
2019-03-06T01:32:39.693Z,95.30
2019-03-06T01:37:46.668Z,95.10
2019-03-06T01:43:03.562Z,94.50
2019-03-06T01:48:08.463Z,94.60
2019-03-06T01:53:13.786Z,94.10
2019-03-06T01:58:18.674Z,94.10
2019-03-06T02:03:23.834Z,93.80
2019-03-06T02:08:29.542Z,93.50
2019-03-06T02:13:34.975Z,93.70
2019-03-06T02:18:40.532Z,93.70
2019-03-06T02:23:46.062Z,93.30
2019-03-06T02:28:51.208Z,93.10
2019-03-06T02:33:56.693Z,93.10
2019-03-06T02:39:01.991Z,92.90
2019-03-06T02:44:07.371Z,93.20
2019-03-06T02:49:13.214Z,93.00
2019-03-06T02:54:18.766Z,93.20
2019-03-06T02:59:27.822Z,93.50
2019-03-06T03:04:35.015Z,93.50
2019-03-06T03:09:39.931Z,93.80
2019-03-06T03:14:44.809Z,94.30
2019-03-06T03:19:49.884Z,94.30
2019-03-06T03:24:55.164Z,94.80
2019-03-06T03:30:00.556Z,94.90
2019-03-06T03:35:06.902Z,95.10
2019-03-06T03:40:14.563Z,95.40
2019-03-06T03:45:19.650Z,95.60
2019-03-06T03:50:24.767Z,95.90
2019-03-06T03:55:29.927Z,95.00
2019-03-06T04:00:35.116Z,95.20
2019-03-06T04:05:40.221Z,94.90
2019-03-06T04:10:45.727Z,95.20
2019-03-06T04:15:50.878Z,94.80
2019-03-06T04:20:55.991Z,94.90
2019-03-06T04:26:01.121Z,95.10
2019-03-06T04:31:06.461Z,94.50
2019-03-06T04:36:11.550Z,94.70
2019-03-06T04:41:16.821Z,94.70
2019-03-06T04:46:21.975Z,95.20
2019-03-06T04:51:27.137Z,95.00
2019-03-06T04:56:32.492Z,95.00
2019-03-06T05:01:37.431Z,94.50
2019-03-06T05:06:42.606Z,94.70
2019-03-06T05:11:47.773Z,94.70
2019-03-06T05:16:54.571Z,94.60
2019-03-06T05:21:59.670Z,94.20
2019-03-06T05:27:05.067Z,94.30
2019-03-06T05:32:13.098Z,94.70
2019-03-06T05:37:21.254Z,94.80
2019-03-06T05:42:26.777Z,95.10
2019-03-06T05:47:31.771Z,94.60
2019-03-06T05:52:38.212Z,94.60
2019-03-06T05:57:43.130Z,94.70
2019-03-06T06:02:48.332Z,95.10
2019-03-06T06:07:53.581Z,95.10
2019-03-06T06:12:59.116Z,95.10
2019-03-06T06:18:04.273Z,95.10
2019-03-06T06:23:11.118Z,94.70
2019-03-06T06:28:15.867Z,95.20
2019-03-06T06:33:20.655Z,94.60
2019-03-06T06:38:25.480Z,95.00
2019-03-06T06:43:31.013Z,95.00
2019-03-06T06:48:35.973Z,95.60
2019-03-06T06:53:44.041Z,95.10
2019-03-06T06:58:52.071Z,95.50
2019-03-06T07:04:03.047Z,95.40
2019-03-06T07:09:07.833Z,95.40
2019-03-06T07:14:14.378Z,95.00
2019-03-06T07:19:21.091Z,95.00
2019-03-06T07:24:27.832Z,94.90
2019-03-06T07:29:53.730Z,95.00
2019-03-06T07:35:03.659Z,94.80
2019-03-06T07:40:31.399Z,95.00
2019-03-06T07:45:38.261Z,94.70
2019-03-06T07:50:45.573Z,94.50
2019-03-06T07:55:52.562Z,94.50
2019-03-06T08:00:57.972Z,93.90
2019-03-06T08:06:03.123Z,94.00
2019-03-06T08:11:09.130Z,93.60
2019-03-06T08:16:15.870Z,93.30
2019-03-06T08:21:22.834Z,93.40
2019-03-06T08:26:28.006Z,93.30
2019-03-06T08:37:04.507Z,92.30
2019-03-06T08:42:10.072Z,91.90
2019-03-06T08:47:16.924Z,92.60
2019-03-06T08:52:23.560Z,91.80
2019-03-06T09:03:02.998Z,92.00
2019-03-06T09:08:10.388Z,91.80
2019-03-06T09:13:17.226Z,91.80
2019-03-06T09:18:24.060Z,91.10
2019-03-06T09:23:30.872Z,90.10
2019-03-06T09:28:37.643Z,88.00
2019-03-06T09:33:44.441Z,86.50
2019-03-06T09:38:51.233Z,85.30
2019-03-06T09:43:57.801Z,87.80
2019-03-06T09:49:11.318Z,82.10
2019-03-06T09:59:44.410Z,79.40
2019-03-06T10:04:51.214Z,76.60
2019-03-06T10:10:00.110Z,75.20
2019-03-06T10:15:26.883Z,77.20
2019-03-06T10:20:32.031Z,74.20
2019-03-06T10:25:37.190Z,73.00
2019-03-06T10:30:42.770Z,70.70
2019-03-06T10:35:48.093Z,71.70
2019-03-06T10:40:53.251Z,73.70
2019-03-06T10:45:58.486Z,69.50
2019-03-06T10:51:22.838Z,67.70
2019-03-06T10:56:28.404Z,67.10
2019-03-06T11:01:33.738Z,66.50
2019-03-06T11:06:38.898Z,66.30
2019-03-06T11:11:44.056Z,66.20
2019-03-06T11:16:49.286Z,67.70
2019-03-06T11:21:54.699Z,64.80
2019-03-06T11:27:00.046Z,63.50
2019-03-06T11:32:06.733Z,63.70
2019-03-06T11:37:12.000Z,66.60
2019-03-06T11:42:17.403Z,62.10
2019-03-06T11:47:23.531Z,63.20
2019-03-06T11:52:28.688Z,62.10
2019-03-06T11:57:33.500Z,63.90
2019-03-06T12:02:38.942Z,61.70
2019-03-06T12:07:44.260Z,63.90
2019-03-06T12:12:49.580Z,63.00
2019-03-06T12:17:54.376Z,61.40
2019-03-06T12:22:59.652Z,59.80
2019-03-06T12:28:05.377Z,59.20
2019-03-06T12:33:12.573Z,59.90
2019-03-06T12:38:17.821Z,60.90
2019-03-06T12:43:24.451Z,63.50
2019-03-06T12:48:29.641Z,64.90
2019-03-06T12:53:35.417Z,65.90
2019-03-06T12:58:47.428Z,66.90
2019-03-06T13:03:53.524Z,64.50
2019-03-06T13:08:59.859Z,65.00
2019-03-06T13:14:05.199Z,63.40
2019-03-06T13:19:10.327Z,65.20
2019-03-06T13:24:24.875Z,63.20
2019-03-06T13:29:29.858Z,63.00
2019-03-06T13:34:35.312Z,62.50
2019-03-06T13:39:40.407Z,63.80
2019-03-06T13:44:45.233Z,64.20
2019-03-06T13:49:50.271Z,63.90
2019-03-06T13:54:55.422Z,64.60
2019-03-06T14:00:00.408Z,64.40
2019-03-06T14:05:07.783Z,65.40
2019-03-06T14:10:15.904Z,63.80
2019-03-06T14:15:21.716Z,62.40
2019-03-06T14:20:27.107Z,60.30
2019-03-06T14:25:32.351Z,60.10
2019-03-06T14:30:39.313Z,61.20
2019-03-06T14:35:44.432Z,60.50
2019-03-06T14:40:49.858Z,60.90
2019-03-06T14:45:55.135Z,61.20
2019-03-06T14:51:01.013Z,61.40
2019-03-06T14:56:06.555Z,62.10
2019-03-06T15:01:11.700Z,62.10
2019-03-06T15:06:16.815Z,61.00
2019-03-06T15:11:21.940Z,61.20
2019-03-06T15:16:27.114Z,62.10
2019-03-06T15:21:32.157Z,62.00
2019-03-06T15:26:37.235Z,62.70
2019-03-06T15:31:42.527Z,63.40
2019-03-06T15:36:47.844Z,63.50
2019-03-06T15:42:00.144Z,64.30
2019-03-06T15:47:01.107Z,64.40
2019-03-06T15:52:08.012Z,65.30
2019-03-06T15:57:12.887Z,66.20
2019-03-06T16:02:18.103Z,66.60
2019-03-06T16:07:23.253Z,67.10
2019-03-06T16:12:28.410Z,67.20
2019-03-06T16:17:33.651Z,68.10
2019-03-06T16:22:39.334Z,69.00
2019-03-06T16:27:45.833Z,70.10
2019-03-06T16:32:51.075Z,70.50
2019-03-06T16:37:56.250Z,71.70
2019-03-06T16:43:01.395Z,72.90
2019-03-06T16:48:06.353Z,73.90
2019-03-06T16:53:12.305Z,74.50
2019-03-06T16:58:17.494Z,75.00
2019-03-06T17:03:22.437Z,75.80
2019-03-06T17:08:27.890Z,76.50
2019-03-06T17:13:33.213Z,77.30
2019-03-06T17:18:38.716Z,77.90
2019-03-06T17:23:43.852Z,78.40
2019-03-06T17:28:49.186Z,78.40
2019-03-06T17:33:54.103Z,79.10
2019-03-06T17:38:59.248Z,79.60
2019-03-06T17:44:04.874Z,79.90
2019-03-06T17:49:10.108Z,80.20
2019-03-06T17:54:15.339Z,80.40
2019-03-06T17:59:21.149Z,80.60
2019-03-06T18:04:26.466Z,80.40
2019-03-06T18:09:51.084Z,80.20
2019-03-06T18:15:16.459Z,80.90
2019-03-06T18:20:21.900Z,81.20
2019-03-06T18:25:27.394Z,81.40
2019-03-06T18:30:32.539Z,81.30
2019-03-06T18:35:38.407Z,81.70
2019-03-06T18:40:43.684Z,82.10
2019-03-06T18:45:49.234Z,81.90
2019-03-06T18:50:54.514Z,81.90
2019-03-06T18:56:21.080Z,81.40
2019-03-06T19:01:26.279Z,81.10
2019-03-06T19:06:31.360Z,80.20
2019-03-06T19:11:36.509Z,79.60
2019-03-06T19:16:41.673Z,78.80
2019-03-06T19:21:46.835Z,78.50
2019-03-06T19:26:51.748Z,78.80
2019-03-06T19:31:56.643Z,78.80
2019-03-06T19:37:01.939Z,79.20
2019-03-06T19:42:06.913Z,80.20
2019-03-06T19:47:12.398Z,80.70
2019-03-06T19:52:18.262Z,80.70
2019-03-06T19:57:23.451Z,80.80
2019-03-06T20:02:28.573Z,80.40
2019-03-06T20:07:33.797Z,80.30
2019-03-06T20:12:39.077Z,80.10
2019-03-06T20:17:44.239Z,79.10
2019-03-06T20:22:49.631Z,78.80
2019-03-06T20:28:15.773Z,78.70
2019-03-06T20:33:21.197Z,78.50
2019-03-06T20:38:25.985Z,78.70
2019-03-06T20:43:31.367Z,78.80
2019-03-06T20:48:36.920Z,78.80
2019-03-06T20:53:42.015Z,79.00
2019-03-06T20:58:47.207Z,78.70
2019-03-06T21:03:52.549Z,78.90
2019-03-06T21:08:57.704Z,78.70
2019-03-06T21:14:02.849Z,79.10
2019-03-06T21:19:07.901Z,79.20
2019-03-06T21:24:12.969Z,79.60
2019-03-06T21:29:18.621Z,79.80
2019-03-06T21:34:23.615Z,80.00
2019-03-06T21:39:29.764Z,79.90
2019-03-06T21:44:35.023Z,79.50
2019-03-06T21:49:40.494Z,79.60
2019-03-06T21:54:46.318Z,79.70
2019-03-06T21:59:51.580Z,79.90
2019-03-06T22:04:57.251Z,80.30
2019-03-06T22:10:02.326Z,80.50
2019-03-06T22:15:10.806Z,80.30
2019-03-06T22:20:35.219Z,79.90
2019-03-06T22:25:40.389Z,79.60
2019-03-06T22:30:45.751Z,79.20
2019-03-06T22:35:50.921Z,79.10
2019-03-06T22:40:56.068Z,78.50
2019-03-06T22:46:01.262Z,78.80
2019-03-06T22:51:07.019Z,79.20
2019-03-06T22:56:12.171Z,79.60
2019-03-06T23:01:20.231Z,80.00
2019-03-06T23:06:25.667Z,79.90
2019-03-06T23:11:50.034Z,80.30
2019-03-06T23:16:55.192Z,80.60
2019-03-06T23:22:00.048Z,80.60
2019-03-06T23:27:24.356Z,80.60
2019-03-06T23:32:29.699Z,80.80
2019-03-06T23:37:34.866Z,80.80
2019-03-06T23:42:40.030Z,80.50
2019-03-06T23:47:45.200Z,80.10
2019-03-06T23:52:52.023Z,79.70
2019-03-06T23:57:57.136Z,79.60
